Airport View

Enter AWOS ICAO identifier for current METAR.

ex. KFNL

KC35 221825Z AUTO 35010KT 10SM SCT050 SCT055 23/12 A3014 RMK AO2 T02320124 PWINO

22 Jul 2019 18:30

Frequency: 118.95

Phone: 608-768-0023

Other Area AWOS: KDLL - K82C - KLNR - KVOK

TAF KVOK 221700Z 2217/2323 35010G15KT 9999 FEW050 QNH3014INS BECMG 2300/2301 36009KT 9999 SKC QNH3015INS TX25/2220Z TN16/2309Z LAST NO AMDS AFT 2221 NEXT 2309